Time;durP1;ratioP1;P1;durP2;ratioP2;P2;SDS_P1;SDS_P2;PMS_P1;PMS_P2;Temp;Humidity;BMP_temperature;BMP_pressure;BME280_temperature;BME280_humidity;BME280_pressure;Samples;Min_cycle;Max_cycle;Signal;HPM_P1;HPM_P2
2023/01/18 00:01:08;;;;;;;;;25.25;21.25;;;;;3.55;60.78;98641.28;5101042;27;45563;-59
2023/01/18 00:03:35;;;;;;;;;13.50;10.75;;;;;3.55;61.46;98648.31;5089996;27;45337;-57
2023/01/18 00:06:02;;;;;;;;;25.00;21.75;;;;;3.60;61.56;98661.16;5078219;27;45394;-60
2023/01/18 00:08:29;;;;;;;;;28.75;19.50;;;;;3.58;62.02;98642.03;5085776;27;46332;-58
2023/01/18 00:11:07;;;;;;;;;19.00;17.50;;;;;3.66;61.52;98658.19;5092182;27;45527;-58
2023/01/18 00:13:32;;;;;;;;;19.75;18.25;;;;;3.64;61.58;98663.53;5097005;27;45530;-62
2023/01/18 00:16:18;;;;;;;;;25.50;24.00;;;;;3.59;62.36;98670.00;5120360;27;45477;-58
2023/01/18 00:18:51;;;;;;;;;26.00;21.25;;;;;3.60;62.34;98662.00;5112939;27;46309;-57
2023/01/18 00:21:16;;;;;;;;;30.00;23.50;;;;;3.51;62.56;98662.53;5120435;27;45307;-58
2023/01/18 00:23:42;;;;;;;;;28.50;25.25;;;;;3.47;62.69;98668.91;5099552;27;45401;-61
2023/01/18 00:26:10;;;;;;;;;26.00;23.50;;;;;3.53;62.75;98671.22;5096094;27;45644;-62
2023/01/18 00:28:36;;;;;;;;;23.00;21.75;;;;;3.48;63.52;98668.81;5102731;27;46935;-60
2023/01/18 00:31:11;;;;;;;;;27.25;24.50;;;;;3.53;62.90;98671.22;5079903;27;45718;-57
2023/01/18 00:33:37;;;;;;;;;20.50;20.25;;;;;3.49;63.61;98667.03;5079196;27;45419;-62
2023/01/18 00:36:03;;;;;;;;;24.25;19.50;;;;;3.50;63.27;98672.22;5078569;27;45545;-58
2023/01/18 00:38:29;;;;;;;;;25.75;23.00;;;;;3.43;63.68;98680.56;5078534;27;46272;-59
2023/01/18 00:40:55;;;;;;;;;22.50;16.25;;;;;3.32;63.89;98683.78;5081766;27;45687;-61
2023/01/18 00:43:39;;;;;;;;;25.75;19.75;;;;;3.32;64.15;98683.78;5094274;27;45382;-65
2023/01/18 00:46:13;;;;;;;;;22.00;19.25;;;;;3.48;64.42;98687.22;5085964;27;46234;-68
2023/01/18 00:48:40;;;;;;;;;22.50;19.00;;;;;3.45;63.50;98690.03;5078849;27;45554;-59
2023/01/18 00:51:08;;;;;;;;;23.25;21.00;;;;;3.45;64.03;98695.28;5097291;27;45735;-63
2023/01/18 00:53:34;;;;;;;;;17.25;17.25;;;;;3.33;63.80;98685.47;5110311;27;45447;-63
2023/01/18 00:55:59;;;;;;;;;24.50;21.75;;;;;3.32;64.38;98696.06;5108912;27;45391;-65
2023/01/18 00:58:24;;;;;;;;;23.50;19.50;;;;;3.34;64.72;98700.31;5119377;27;46215;-63
2023/01/18 01:00:51;;;;;;;;;23.50;16.75;;;;;3.31;64.62;98692.59;5101367;27;45330;-58
2023/01/18 01:03:18;;;;;;;;;22.75;20.00;;;;;3.27;64.18;98706.84;5078609;27;45309;-57
2023/01/18 01:08:27;;;;;;;;;24.50;19.25;;;;;3.22;64.36;98719.38;5078335;27;45755;-61
2023/01/18 01:11:05;;;;;;;;;23.75;20.25;;;;;3.15;64.60;98718.06;5093522;27;45992;-65
2023/01/18 01:27:11;;;;;;;;;20.25;19.00;;;;;3.39;65.02;98736.84;5107474;27;45257;-60
2023/01/18 01:29:37;;;;;;;;;15.50;12.50;;;;;3.31;64.74;98745.16;5104544;27;46132;-63
2023/01/18 01:32:03;;;;;;;;;24.25;19.00;;;;;3.24;64.57;98744.63;5078026;27;45549;-63
2023/01/18 01:34:29;;;;;;;;;24.25;20.75;;;;;3.19;65.17;98745.84;5086526;27;45250;-64
2023/01/18 01:36:55;;;;;;;;;19.00;16.75;;;;;3.23;65.15;98742.09;5088368;27;45602;-62
2023/01/18 01:39:21;;;;;;;;;31.50;25.50;;;;;3.22;64.78;98750.91;5088011;27;45389;-62
2023/01/18 01:41:46;;;;;;;;;28.25;22.75;;;;;3.22;65.13;98757.00;5098766;27;45762;-59
2023/01/18 01:44:18;;;;;;;;;24.50;21.75;;;;;3.25;65.33;98755.97;5108713;27;45365;-62
2023/01/18 01:46:57;;;;;;;;;22.75;20.25;;;;;3.24;65.43;98767.44;5082630;27;45615;-61
2023/01/18 01:49:28;;;;;;;;;28.75;23.50;;;;;3.23;64.34;98763.09;5076010;28;45412;-65
2023/01/18 01:52:04;;;;;;;;;23.50;19.25;;;;;3.26;65.50;98765.59;5078649;27;45559;-61
2023/01/18 01:54:36;;;;;;;;;21.75;18.25;;;;;3.24;65.01;98775.31;5109029;27;45284;-58
2023/01/18 01:57:21;;;;;;;;;25.50;20.50;;;;;3.26;65.24;98773.47;5079273;27;45385;-62
2023/01/18 01:59:58;;;;;;;;;25.50;18.50;;;;;3.20;64.94;98776.41;5093890;27;46591;-61
2023/01/18 02:02:23;;;;;;;;;25.75;19.25;;;;;3.08;65.22;98777.09;5076472;27;45316;-64
2023/01/18 02:04:52;;;;;;;;;26.50;20.00;;;;;3.05;65.67;98775.47;5095381;27;45389;-68
2023/01/18 02:07:19;;;;;;;;;23.25;17.25;;;;;3.10;65.44;98783.09;5078438;27;45222;-61
2023/01/18 02:09:46;;;;;;;;;22.50;15.75;;;;;3.16;65.68;98788.03;5079841;27;46150;-60
2023/01/18 02:12:12;;;;;;;;;21.25;18.00;;;;;3.14;65.18;98789.91;5098077;27;45412;-67
2023/01/18 02:14:38;;;;;;;;;26.00;23.00;;;;;3.13;65.47;98788.22;5095038;27;45404;-62
2023/01/18 02:17:12;;;;;;;;;25.50;19.75;;;;;3.10;65.59;98804.09;5096405;27;45329;-62
2023/01/18 02:20:09;;;;;;;;;27.00;22.75;;;;;3.10;65.76;98796.22;5095783;27;45475;-64
2023/01/18 02:22:46;;;;;;;;;27.75;24.75;;;;;3.13;65.58;98783.81;5096618;27;45320;-65
2023/01/18 02:25:43;;;;;;;;;18.00;15.50;;;;;3.09;65.70;98782.25;5099906;27;45499;-58
2023/01/18 02:28:10;;;;;;;;;20.75;16.25;;;;;3.17;65.22;98794.97;5118751;27;45356;-62
2023/01/18 02:30:43;;;;;;;;;21.75;19.25;;;;;3.17;64.78;98805.50;5104548;27;45403;-58
2023/01/18 02:33:20;;;;;;;;;31.75;18.50;;;;;3.09;65.05;98812.91;5099339;27;45386;-61
2023/01/18 02:35:50;;;;;;;;;18.75;17.25;;;;;3.10;65.00;98812.00;5090116;27;45329;-60
2023/01/18 02:38:25;;;;;;;;;19.25;15.75;;;;;3.07;64.89;98815.63;5083345;27;45227;-59
2023/01/18 02:41:01;;;;;;;;;22.00;16.75;;;;;3.12;65.49;98812.75;5097971;27;46262;-60
2023/01/18 02:46:29;;;;;;;;;19.00;17.25;;;;;3.09;65.10;98819.03;5070443;27;45539;-57
2023/01/18 02:48:57;;;;;;;;;20.75;19.00;;;;;3.02;64.57;98816.81;5095258;27;45449;-59
2023/01/18 02:51:23;;;;;;;;;24.25;21.75;;;;;3.01;65.60;98817.75;5108789;27;46306;-59
2023/01/18 02:53:49;;;;;;;;;20.25;16.50;;;;;3.00;65.15;98821.31;5087748;27;45388;-63
2023/01/18 02:56:29;;;;;;;;;20.25;13.25;;;;;3.05;65.41;98820.13;5092758;27;45440;-66
2023/01/18 02:59:03;;;;;;;;;23.75;19.00;;;;;3.01;65.45;98823.00;5098004;27;45425;-62
2023/01/18 03:01:36;;;;;;;;;17.75;15.50;;;;;3.07;65.01;98841.06;5089924;27;46565;-64
2023/01/18 03:04:08;;;;;;;;;15.00;12.75;;;;;3.10;65.31;98840.88;5117550;27;45433;-59
2023/01/18 03:06:34;;;;;;;;;21.00;19.50;;;;;3.09;65.05;98839.19;5097607;27;45472;-59
2023/01/18 03:08:59;;;;;;;;;17.75;16.00;;;;;3.06;65.20;98840.19;5096322;27;45472;-59
2023/01/18 03:11:55;;;;;;;;;16.75;15.00;;;;;3.08;65.33;98850.63;5079881;27;46058;-60
2023/01/18 03:14:51;;;;;;;;;19.00;17.50;;;;;3.06;65.07;98842.81;5097028;27;45360;-59
2023/01/18 03:17:25;;;;;;;;;20.00;15.00;;;;;3.07;64.92;98851.56;5074695;28;45398;-59
2023/01/18 03:20:07;;;;;;;;;20.75;13.50;;;;;3.01;64.96;98847.50;5095904;27;45259;-63
2023/01/18 03:25:47;;;;;;;;;15.50;13.75;;;;;3.01;65.68;98865.88;5090776;27;45242;-62
2023/01/18 03:33:58;;;;;;;;;18.50;16.00;;;;;3.03;64.79;98855.28;5093520;27;45231;-63
2023/01/18 03:36:32;;;;;;;;;13.50;13.50;;;;;2.91;65.38;98860.25;5103547;27;45257;-64
2023/01/18 03:39:09;;;;;;;;;20.00;18.25;;;;;2.92;65.51;98869.81;5100100;27;45318;-63
2023/01/18 03:41:45;;;;;;;;;16.00;16.00;;;;;2.89;65.55;98866.50;5081315;27;45220;-58
2023/01/18 03:44:19;;;;;;;;;17.50;16.00;;;;;2.88;66.03;98868.28;5077750;27;48206;-62
2023/01/18 03:46:45;;;;;;;;;21.50;21.00;;;;;2.85;66.37;98881.56;5079972;27;45285;-59
2023/01/18 03:49:11;;;;;;;;;27.25;23.25;;;;;2.86;66.50;98877.16;5081176;27;45257;-60
2023/01/18 03:52:08;;;;;;;;;17.25;11.75;;;;;2.88;67.05;98888.44;5080900;27;45503;-63
2023/01/18 03:54:45;;;;;;;;;23.25;20.50;;;;;2.91;66.77;98894.38;5079357;27;46275;-63
2023/01/18 03:57:44;;;;;;;;;29.25;22.00;;;;;2.84;66.82;98903.50;5098723;27;45319;-64
2023/01/18 04:00:12;;;;;;;;;21.75;18.00;;;;;2.80;66.65;98912.47;5109826;27;45426;-65
2023/01/18 04:02:38;;;;;;;;;28.50;26.50;;;;;2.79;66.57;98913.38;5114344;27;45479;-61
2023/01/18 04:05:04;;;;;;;;;26.50;23.50;;;;;2.78;67.27;98914.31;5131054;27;45597;-65
2023/01/18 04:07:33;;;;;;;;;25.75;22.00;;;;;2.84;67.19;98923.66;5115487;27;45415;-59
2023/01/18 04:09:59;;;;;;;;;30.75;22.50;;;;;2.88;66.67;98933.94;5113899;27;45507;-60
2023/01/18 04:12:25;;;;;;;;;27.25;22.50;;;;;2.85;66.46;98926.19;5093891;27;45482;-61
2023/01/18 04:14:50;;;;;;;;;28.50;24.25;;;;;2.71;66.67;98914.69;5080044;27;45280;-57
2023/01/18 04:17:16;;;;;;;;;24.75;24.25;;;;;2.77;67.05;98933.63;5099540;27;45249;-58
2023/01/18 04:19:42;;;;;;;;;20.50;18.00;;;;;2.77;67.04;98933.63;5097514;27;45397;-59
2023/01/18 04:22:08;;;;;;;;;34.25;27.00;;;;;2.74;66.91;98933.78;5099512;27;45518;-59
2023/01/18 04:24:33;;;;;;;;;23.50;23.50;;;;;2.69;66.90;98930.53;5099441;27;45400;-62
2023/01/18 04:26:58;;;;;;;;;24.00;19.50;;;;;2.71;67.31;98940.94;5113574;27;45539;-64
2023/01/18 04:29:24;;;;;;;;;23.75;14.75;;;;;2.68;66.71;98939.31;5095715;27;45431;-67
2023/01/18 04:31:49;;;;;;;;;30.00;24.75;;;;;2.67;67.08;98937.63;5114131;27;45419;-65
2023/01/18 04:34:15;;;;;;;;;25.50;23.75;;;;;2.64;67.27;98938.66;5104175;27;45681;-58
2023/01/18 04:36:43;;;;;;;;;23.75;22.50;;;;;2.79;66.90;98958.03;5080371;27;45410;-58
2023/01/18 04:39:12;;;;;;;;;10.75;10.75;;;;;2.76;66.63;98958.19;5079232;27;45404;-59
2023/01/18 04:41:37;;;;;;;;;28.50;24.00;;;;;2.77;66.32;98959.88;5116575;27;45226;-60
2023/01/18 04:44:03;;;;;;;;;27.00;19.00;;;;;2.78;67.06;98963.34;5118344;27;46364;-58
2023/01/18 04:46:28;;;;;;;;;16.75;16.25;;;;;2.83;67.05;98970.06;5099928;27;45324;-61
2023/01/18 04:48:54;;;;;;;;;30.50;24.00;;;;;2.84;66.38;98965.66;5099778;27;45567;-59
2023/01/18 04:51:22;;;;;;;;;23.75;19.00;;;;;2.75;66.60;98950.38;5116187;27;45486;-63
2023/01/18 04:53:48;;;;;;;;;21.75;19.50;;;;;2.85;66.40;98962.09;5119771;27;46287;-62
2023/01/18 04:56:14;;;;;;;;;33.75;22.75;;;;;2.79;66.17;98960.66;5100167;27;45456;-61
2023/01/18 04:58:39;;;;;;;;;25.75;25.00;;;;;2.83;67.04;98970.06;5099991;27;45299;-64
2023/01/18 05:01:07;;;;;;;;;25.00;19.50;;;;;2.83;65.97;98972.69;5094937;27;45422;-65
2023/01/18 05:03:36;;;;;;;;;29.25;24.75;;;;;2.74;65.83;98977.56;5118579;27;46190;-64
2023/01/18 05:06:10;;;;;;;;;24.25;23.50;;;;;2.70;66.58;98974.22;5086408;27;45455;-60
2023/01/18 05:08:39;;;;;;;;;30.75;26.50;;;;;2.75;66.16;98980.09;5088341;27;45619;-60
2023/01/18 05:11:10;;;;;;;;;23.50;17.75;;;;;2.77;66.51;98980.88;5112457;27;45459;-63
2023/01/18 05:13:36;;;;;;;;;27.00;24.50;;;;;2.79;65.88;98989.53;5096944;27;47532;-58
2023/01/18 05:16:02;;;;;;;;;30.00;19.50;;;;;2.77;66.77;98975.63;5097855;27;45724;-59
2023/01/18 05:18:28;;;;;;;;;23.75;23.75;;;;;2.74;66.15;98983.66;5098717;27;45415;-61
2023/01/18 05:20:53;;;;;;;;;25.75;20.75;;;;;2.76;66.85;98991.47;5099707;27;45496;-58
2023/01/18 05:23:19;;;;;;;;;19.50;16.25;;;;;2.82;66.51;98996.38;5096258;27;45255;-61
2023/01/18 05:25:44;;;;;;;;;26.25;22.00;;;;;2.81;65.82;98998.16;5097511;27;45375;-57
2023/01/18 05:28:10;;;;;;;;;20.00;11.75;;;;;2.81;66.11;98992.91;5079591;27;45324;-65
2023/01/18 05:30:41;;;;;;;;;16.00;16.00;;;;;2.85;65.97;99002.31;5085027;27;45264;-61
2023/01/18 05:33:08;;;;;;;;;34.75;29.75;;;;;2.79;65.71;99005.28;5077739;27;45529;-66
2023/01/18 05:35:34;;;;;;;;;25.00;21.25;;;;;2.82;66.32;99009.50;5091750;27;45233;-66
2023/01/18 05:37:59;;;;;;;;;29.25;22.00;;;;;2.82;65.95;99014.78;5114545;27;45325;-66
2023/01/18 05:40:24;;;;;;;;;25.00;23.50;;;;;2.84;65.98;99016.38;5097821;27;45497;-63
2023/01/18 05:42:50;;;;;;;;;26.50;22.75;;;;;2.88;66.43;99025.84;5085992;27;46264;-60
2023/01/18 05:45:15;;;;;;;;;18.25;18.25;;;;;2.89;66.30;99026.69;5085139;27;45492;-62
2023/01/18 05:47:40;;;;;;;;;28.00;21.75;;;;;2.94;66.53;99033.38;5095454;27;45881;-64
2023/01/18 05:50:06;;;;;;;;;23.25;22.00;;;;;3.00;65.89;99041.91;5082997;27;45513;-58
2023/01/18 05:52:33;;;;;;;;;21.25;18.00;;;;;3.01;65.85;99041.81;5098156;27;46374;-62
2023/01/18 05:54:58;;;;;;;;;28.00;24.00;;;;;3.04;65.85;99038.19;5083513;27;45384;-63
2023/01/18 05:57:23;;;;;;;;;19.00;19.00;;;;;3.00;65.60;99041.91;5097994;27;45665;-64
2023/01/18 05:59:49;;;;;;;;;20.75;17.50;;;;;2.96;65.55;99039.41;5091671;27;44825;-63
2023/01/18 06:02:14;;;;;;;;;18.00;18.00;;;;;3.06;65.72;99054.72;5094020;27;52022;-63
2023/01/18 06:04:39;;;;;;;;;23.75;19.25;;;;;3.06;65.83;99049.47;5096746;27;45509;-61
2023/01/18 06:07:05;;;;;;;;;30.00;27.75;;;;;3.10;65.66;99056.25;5092701;27;45443;-65
2023/01/18 06:09:30;;;;;;;;;27.50;23.75;;;;;3.01;65.71;99046.22;5089132;27;45559;-65
2023/01/18 06:11:56;;;;;;;;;32.00;22.25;;;;;3.07;65.78;99056.41;5093801;27;45503;-65
2023/01/18 06:14:21;;;;;;;;;23.50;17.25;;;;;3.09;65.56;99062.44;5110810;27;45459;-75
2023/01/18 06:16:46;;;;;;;;;17.25;16.25;;;;;3.10;65.70;99066.75;5109149;27;52158;-72
2023/01/18 06:19:12;;;;;;;;;27.25;19.50;;;;;3.07;65.78;99066.91;5107596;27;45359;-75
2023/01/18 06:21:37;;;;;;;;;23.25;18.50;;;;;3.10;65.78;99067.59;5099735;27;46277;-66
2023/01/18 06:24:03;;;;;;;;;21.50;20.00;;;;;3.12;65.89;99086.75;5089508;27;45395;-66
2023/01/18 06:26:30;;;;;;;;;29.50;20.75;;;;;3.14;65.82;99081.47;5079008;27;45501;-74
2023/01/18 06:28:56;;;;;;;;;23.25;20.00;;;;;3.12;65.83;99088.53;5090374;27;45373;-63
2023/01/18 06:31:22;;;;;;;;;33.75;23.75;;;;;3.15;65.84;99085.78;5096444;27;46275;-71
2023/01/18 06:33:48;;;;;;;;;15.75;14.25;;;;;3.15;66.10;99097.16;5096784;27;45304;-71
2023/01/18 06:36:13;;;;;;;;;24.75;19.50;;;;;3.04;65.81;99081.06;5088880;27;45418;-74
2023/01/18 06:38:40;;;;;;;;;17.25;17.25;;;;;3.07;65.71;99108.94;5089713;27;45687;-67
2023/01/18 06:41:06;;;;;;;;;22.25;19.75;;;;;3.02;66.08;99106.56;5095538;27;46160;-69
2023/01/18 06:43:31;;;;;;;;;17.00;17.00;;;;;3.08;65.98;99121.16;5094459;27;45454;-67
2023/01/18 06:45:57;;;;;;;;;32.00;19.00;;;;;3.07;66.22;99125.56;5088463;27;45332;-61
2023/01/18 06:48:23;;;;;;;;;22.25;21.75;;;;;3.02;66.20;99116.22;5097879;27;45498;-58
2023/01/18 06:50:54;;;;;;;;;22.00;18.00;;;;;2.93;65.60;99107.84;5090125;27;46227;-58
2023/01/18 06:53:20;;;;;;;;;23.00;21.00;;;;;3.09;66.04;99141.22;5081288;27;45326;-57
2023/01/18 06:55:57;;;;;;;;;21.50;19.75;;;;;3.06;65.78;99138.75;5097794;27;45423;-57
2023/01/18 06:58:24;;;;;;;;;26.50;21.50;;;;;3.07;65.63;99145.72;5094119;27;47141;-57
2023/01/18 07:00:53;;;;;;;;;25.00;23.75;;;;;3.04;65.76;99151.97;5111025;27;45402;-54
2023/01/18 07:03:19;;;;;;;;;22.00;20.75;;;;;3.08;65.71;99150.88;5095961;27;45460;-60
2023/01/18 07:05:45;;;;;;;;;18.25;17.25;;;;;3.01;65.94;99141.63;5097250;27;45475;-56
2023/01/18 07:08:11;;;;;;;;;22.25;12.25;;;;;3.09;65.53;99144.72;5095816;27;45529;-56
2023/01/18 07:10:37;;;;;;;;;10.75;10.75;;;;;3.12;65.41;99152.44;5076718;27;46184;-61
2023/01/18 07:13:02;;;;;;;;;22.00;19.25;;;;;3.13;65.35;99155.94;5076118;27;45514;-61
2023/01/18 07:15:28;;;;;;;;;18.75;18.75;;;;;3.15;65.33;99167.22;5096291;27;45437;-64
2023/01/18 07:17:53;;;;;;;;;24.00;22.25;;;;;3.16;65.07;99161.03;5096070;27;45320;-60
2023/01/18 07:20:18;;;;;;;;;26.25;22.75;;;;;3.20;65.24;99175.72;5096716;27;45413;-62
2023/01/18 07:22:44;;;;;;;;;22.75;19.75;;;;;3.18;65.06;99178.41;5099971;27;45517;-65
2023/01/18 07:25:12;;;;;;;;;22.00;20.25;;;;;3.19;65.20;99187.16;5111701;27;45250;-58
2023/01/18 07:27:39;;;;;;;;;28.25;22.00;;;;;3.20;65.11;99189.69;5076748;27;45326;-61
2023/01/18 07:30:05;;;;;;;;;23.75;18.75;;;;;3.22;65.00;99184.38;5074487;28;46268;-67
2023/01/18 07:32:31;;;;;;;;;24.50;21.25;;;;;3.25;64.69;99194.72;5076460;27;45453;-67
2023/01/18 07:34:56;;;;;;;;;24.50;21.25;;;;;3.30;64.68;99200.63;5076209;27;45383;-64
2023/01/18 07:37:21;;;;;;;;;19.50;17.00;;;;;3.34;64.52;99202.16;5094746;27;45639;-61
2023/01/18 07:39:47;;;;;;;;;19.25;17.25;;;;;3.28;64.47;99181.47;5079707;27;47116;-66
2023/01/18 07:42:13;;;;;;;;;21.00;15.50;;;;;3.35;64.11;99206.50;5074536;28;45494;-64
2023/01/18 07:44:38;;;;;;;;;31.75;19.50;;;;;3.40;64.00;99212.41;5093642;27;45512;-66
2023/01/18 07:47:06;;;;;;;;;26.75;20.75;;;;;3.38;64.14;99214.22;5098134;27;45218;-62
2023/01/18 07:49:32;;;;;;;;;30.50;20.75;;;;;3.46;64.23;99219.13;5094685;27;46882;-66
2023/01/18 07:51:57;;;;;;;;;27.00;21.00;;;;;3.45;64.43;99220.03;5099070;27;45487;-61
2023/01/18 07:54:22;;;;;;;;;30.00;19.75;;;;;3.41;64.42;99218.50;5096635;27;45255;-64
2023/01/18 07:56:48;;;;;;;;;18.25;16.25;;;;;3.49;64.27;99227.69;5099190;27;45472;-63
2023/01/18 07:59:14;;;;;;;;;22.50;21.75;;;;;3.53;64.20;99231.91;5102041;27;46145;-67
2023/01/18 08:01:39;;;;;;;;;24.75;19.50;;;;;3.55;64.76;99237.94;5090272;27;47031;-60
2023/01/18 08:04:08;;;;;;;;;19.25;18.00;;;;;3.52;64.26;99238.09;5096942;27;45696;-64
2023/01/18 08:06:34;;;;;;;;;21.50;16.50;;;;;3.56;64.21;99238.78;5091395;27;45427;-63
2023/01/18 08:08:59;;;;;;;;;25.25;18.25;;;;;3.42;63.90;99223.69;5077470;27;46117;-63
2023/01/18 08:11:25;;;;;;;;;20.50;20.50;;;;;3.51;63.62;99241.59;5079804;27;45399;-66
2023/01/18 08:13:51;;;;;;;;;18.50;17.25;;;;;3.45;64.31;99231.41;5112653;27;45397;-60
2023/01/18 08:16:17;;;;;;;;;18.75;18.75;;;;;3.33;64.09;99210.13;5099623;27;45460;-64
2023/01/18 08:18:44;;;;;;;;;23.75;23.50;;;;;3.52;64.54;99243.34;5094431;27;47267;-61
2023/01/18 08:21:12;;;;;;;;;19.75;17.50;;;;;3.51;63.91;99246.88;5079606;27;45426;-62
2023/01/18 08:23:38;;;;;;;;;22.00;21.50;;;;;3.54;64.07;99252.00;5093682;27;45404;-63
2023/01/18 08:26:04;;;;;;;;;34.50;21.75;;;;;3.53;64.16;99273.09;5099228;27;45263;-60
2023/01/18 08:28:30;;;;;;;;;23.75;20.00;;;;;3.50;64.42;99266.19;5098468;27;46457;-61
2023/01/18 08:31:09;;;;;;;;;17.00;16.25;;;;;3.51;64.08;99267.91;5114819;27;45345;-67
2023/01/18 08:33:44;;;;;;;;;33.00;23.25;;;;;3.53;63.39;99273.09;5098813;27;45381;-62
2023/01/18 08:36:15;;;;;;;;;34.00;25.25;;;;;3.46;64.25;99264.66;5099386;27;45417;-62
2023/01/18 08:38:41;;;;;;;;;28.25;24.25;;;;;3.49;64.02;99267.13;5096760;27;45573;-61
2023/01/18 08:41:06;;;;;;;;;35.25;27.00;;;;;3.52;64.17;99277.50;5093948;27;45413;-61
2023/01/18 08:43:32;;;;;;;;;27.75;22.00;;;;;3.44;64.60;99266.50;5078674;27;45373;-64
2023/01/18 08:45:58;;;;;;;;;22.25;22.25;;;;;3.53;63.46;99284.47;5088650;27;45346;-62
2023/01/18 08:48:23;;;;;;;;;27.25;23.25;;;;;3.45;64.37;99273.47;5088380;27;46049;-62
2023/01/18 08:50:48;;;;;;;;;26.50;18.00;;;;;3.58;64.05;99289.50;5097078;27;45323;-67
2023/01/18 08:53:14;;;;;;;;;33.25;24.75;;;;;3.59;63.66;99295.59;5097623;27;45669;-63
2023/01/18 08:55:39;;;;;;;;;23.25;22.75;;;;;3.67;63.52;99294.31;5099348;27;45580;-64
2023/01/18 08:58:05;;;;;;;;;22.50;22.50;;;;;3.74;63.71;99302.75;5091247;27;46086;-66
2023/01/18 09:00:31;;;;;;;;;21.25;16.25;;;;;3.75;63.55;99307.94;5098517;27;45330;-62
2023/01/18 09:02:57;;;;;;;;;26.50;21.25;;;;;3.77;63.08;99310.47;5098749;27;45414;-67
2023/01/18 09:05:23;;;;;;;;;18.25;15.50;;;;;3.81;63.38;99317.31;5104287;27;46615;-64
2023/01/18 09:07:50;;;;;;;;;17.50;17.00;;;;;3.90;63.29;99335.25;5096916;27;45509;-67
2023/01/18 09:10:16;;;;;;;;;28.00;28.00;;;;;3.86;63.25;99325.81;5097902;27;45389;-62
2023/01/18 09:12:41;;;;;;;;;27.50;19.75;;;;;3.96;62.88;99332.34;5099058;27;45385;-63
2023/01/18 09:15:08;;;;;;;;;22.50;15.75;;;;;3.98;61.87;99330.47;5086755;27;45287;-63
2023/01/18 09:17:33;;;;;;;;;22.75;21.50;;;;;4.08;62.58;99339.63;5078198;27;45293;-66
2023/01/18 09:19:59;;;;;;;;;31.50;23.50;;;;;4.17;62.84;99350.59;5097075;27;45438;-66
2023/01/18 09:22:24;;;;;;;;;26.50;19.25;;;;;4.20;63.12;99355.75;5078476;27;45374;-62
2023/01/18 09:24:50;;;;;;;;;26.75;20.00;;;;;4.23;61.93;99356.44;5081311;27;45326;-62
2023/01/18 09:27:16;;;;;;;;;23.25;21.00;;;;;4.18;62.69;99352.34;5090730;27;45539;-66
2023/01/18 09:29:41;;;;;;;;;13.75;11.00;;;;;4.21;62.29;99373.22;5098493;27;45428;-63
2023/01/18 09:32:07;;;;;;;;;23.00;20.50;;;;;4.21;61.93;99373.22;5086948;27;45903;-60
2023/01/18 09:34:33;;;;;;;;;25.00;21.50;;;;;4.19;62.21;99367.19;5094281;27;45528;-63
2023/01/18 09:37:00;;;;;;;;;21.25;19.75;;;;;4.15;61.99;99359.44;5094343;27;46057;-65
2023/01/18 09:39:26;;;;;;;;;27.00;24.50;;;;;4.15;62.24;99363.84;5087883;27;45313;-57
2023/01/18 09:41:54;;;;;;;;;32.00;20.75;;;;;4.20;62.28;99372.38;5080336;27;45481;-59
2023/01/18 09:44:38;;;;;;;;;27.75;25.00;;;;;4.20;62.30;99371.53;5079537;27;45527;-66
2023/01/18 09:47:32;;;;;;;;;23.25;20.25;;;;;4.21;62.19;99386.38;5092233;27;47189;-59
2023/01/18 09:50:01;;;;;;;;;25.00;21.75;;;;;4.19;62.63;99393.50;5075969;27;45458;-64
2023/01/18 09:53:06;;;;;;;;;27.00;24.25;;;;;4.22;62.49;99406.50;5091526;27;46105;-63
2023/01/18 09:55:55;;;;;;;;;21.25;20.00;;;;;4.24;62.00;99391.50;5093896;27;45444;-64
2023/01/18 09:58:26;;;;;;;;;22.75;20.00;;;;;4.24;61.83;99388.84;5097879;27;45805;-62
2023/01/18 10:01:00;;;;;;;;;22.50;16.00;;;;;4.27;61.25;99401.84;5081272;27;45986;-64
2023/01/18 10:03:47;;;;;;;;;27.25;23.50;;;;;4.30;61.33;99404.38;5084068;27;45825;-67
2023/01/18 10:06:26;;;;;;;;;18.75;16.50;;;;;4.28;61.46;99400.94;5085069;27;45589;-60
2023/01/18 10:08:58;;;;;;;;;17.75;17.75;;;;;4.38;60.72;99412.72;5087557;27;45786;-68
2023/01/18 10:11:43;;;;;;;;;21.25;17.75;;;;;4.51;61.13;99419.06;5095115;27;45435;-62
2023/01/18 10:14:22;;;;;;;;;25.50;22.75;;;;;4.56;60.90;99403.91;5080294;27;45491;-61
2023/01/18 10:17:02;;;;;;;;;25.50;20.50;;;;;4.49;60.97;99389.34;5080829;27;45542;-67
2023/01/18 10:19:30;;;;;;;;;22.75;17.75;;;;;4.67;61.28;99408.63;5083870;27;45438;-67
2023/01/18 10:22:09;;;;;;;;;17.25;17.25;;;;;4.72;60.90;99407.47;5091013;27;45432;-65
2023/01/18 10:24:45;;;;;;;;;19.75;17.00;;;;;4.81;61.34;99405.28;5094302;27;45576;-61
2023/01/18 10:27:41;;;;;;;;;16.75;16.75;;;;;4.94;60.61;99424.78;5075804;27;45604;-60
2023/01/18 10:30:31;;;;;;;;;17.25;14.50;;;;;5.01;60.79;99429.69;5080873;27;45512;-61
2023/01/18 10:33:00;;;;;;;;;16.00;14.50;;;;;5.10;60.20;99427.50;5095406;27;45216;-68
2023/01/18 10:35:30;;;;;;;;;12.75;11.00;;;;;5.02;60.77;99433.16;5106417;27;45545;-64
2023/01/18 10:37:59;;;;;;;;;7.50;7.50;;;;;5.03;60.24;99437.50;5093772;27;45355;-69
2023/01/18 10:40:25;;;;;;;;;13.00;10.75;;;;;5.15;60.71;99431.59;5079930;27;46567;-61
2023/01/18 10:42:55;;;;;;;;;23.50;13.50;;;;;5.21;60.55;99431.28;5085561;27;45492;-62
2023/01/18 10:45:30;;;;;;;;;16.50;11.00;;;;;5.28;60.79;99424.75;5084692;27;45552;-63
2023/01/18 10:48:17;;;;;;;;;21.75;11.25;;;;;5.38;60.50;99433.03;5096489;27;45482;-66
2023/01/18 10:50:52;;;;;;;;;15.50;12.00;;;;;5.40;59.89;99420.59;5095584;27;46400;-58
2023/01/18 10:53:26;;;;;;;;;16.25;12.50;;;;;5.50;59.97;99420.97;5081220;27;45507;-62
2023/01/18 10:56:15;;;;;;;;;18.75;12.25;;;;;5.60;59.34;99424.81;5077425;27;45408;-63
2023/01/18 10:58:49;;;;;;;;;14.75;12.00;;;;;5.69;59.50;99423.44;5066339;27;45451;-54
2023/01/18 11:01:48;;;;;;;;;12.75;11.00;;;;;5.74;58.65;99422.28;5079613;27;46143;-66
2023/01/18 11:04:21;;;;;;;;;17.50;13.00;;;;;5.86;58.64;99429.53;5089503;27;45326;-62
2023/01/18 11:06:49;;;;;;;;;12.00;9.25;;;;;5.94;58.49;99421.19;5087826;27;45461;-63
2023/01/18 11:09:33;;;;;;;;;10.00;9.50;;;;;6.00;59.10;99414.75;5081399;27;45545;-67
2023/01/18 11:12:39;;;;;;;;;12.00;10.00;;;;;6.11;59.78;99417.59;5078440;27;46471;-67
2023/01/18 11:15:14;;;;;;;;;12.50;11.00;;;;;6.22;59.17;99418.69;5089073;27;45445;-58
2023/01/18 11:17:42;;;;;;;;;10.50;10.50;;;;;6.38;58.66;99415.19;5083061;27;45389;-52
2023/01/18 11:20:17;;;;;;;;;11.50;8.50;;;;;6.42;58.42;99407.00;5076870;27;45584;-50
2023/01/18 11:22:52;;;;;;;;;8.00;6.25;;;;;6.47;58.71;99404.09;5090862;27;46474;-54
2023/01/18 11:25:18;;;;;;;;;11.00;7.50;;;;;6.53;58.13;99400.25;5075458;27;45369;-51
2023/01/18 11:27:44;;;;;;;;;8.00;8.00;;;;;6.64;57.43;99401.34;5074383;27;45217;-61
2023/01/18 11:30:29;;;;;;;;;9.00;8.50;;;;;6.71;57.39;99396.53;5088411;27;45520;-57
2023/01/18 11:32:58;;;;;;;;;11.25;11.00;;;;;6.82;57.95;99398.53;5089055;27;46068;-54
2023/01/18 11:35:31;;;;;;;;;17.75;9.00;;;;;6.88;56.57;99396.38;5092050;27;45405;-62
2023/01/18 11:37:59;;;;;;;;;9.00;7.25;;;;;6.95;57.16;99394.22;5090836;27;45388;-62
2023/01/18 11:40:27;;;;;;;;;15.25;9.00;;;;;7.04;56.94;99389.22;5093385;27;45466;-61
2023/01/18 11:43:21;;;;;;;;;6.00;6.00;;;;;7.09;56.70;99395.06;5089793;27;45540;-65
2023/01/18 11:45:53;;;;;;;;;7.00;5.00;;;;;7.19;55.61;99392.72;5079242;27;45493;-66
2023/01/18 11:48:43;;;;;;;;;10.25;6.50;;;;;7.23;56.52;99396.03;5079994;27;45408;-61
2023/01/18 11:51:21;;;;;;;;;9.75;8.50;;;;;7.17;56.35;99380.56;5095674;27;45415;-63
2023/01/18 11:54:05;;;;;;;;;10.25;8.00;;;;;7.31;56.50;99385.84;5085026;27;45937;-64
2023/01/18 11:56:38;;;;;;;;;8.00;8.00;;;;;7.33;56.22;99394.53;5099118;27;45344;-65
2023/01/18 11:59:12;;;;;;;;;12.00;12.00;;;;;7.32;56.20;99404.25;5087039;27;45292;-63
2023/01/18 12:02:09;;;;;;;;;9.75;9.75;;;;;7.34;56.03;99398.88;5079379;27;45533;-63
2023/01/18 12:05:04;;;;;;;;;6.00;5.50;;;;;7.29;55.41;99387.72;5079197;27;45566;-63
2023/01/18 12:07:32;;;;;;;;;10.00;8.00;;;;;7.42;56.25;99401.88;5083552;27;45412;-62
2023/01/18 12:09:59;;;;;;;;;13.50;8.00;;;;;7.40;55.70;99391.38;5097462;27;45300;-65